Αρχική σελίδα
METAR-TAF:

METAR-TAF

Αεροδρόμια :

Cape Peel West, Νούναβουτ, Καναδάς

γεωγραφικό πλάτος: 69-02N, γεωγραφικό μήκος: 107-49W, υψόμετρο: 165 μ

Παρών καιρός

Η αναφορά έγινε 1 ώρα και 2 λεπτά πριν, στις 12:00 UTC
Άνεμος 27 kt από Β/BΔ
Θερμοκρασία -30°C
Υγρασία 68%
Πίεση 1026 hPa

METAR: CWPX 101200Z AUTO 34027KT ////SM //// NCD M30/M34 A3029

Χρόνος: 06:02 (13:02 UTC)


TAF: λείπει

Μετεωρολογικές αναφορές και προγνώσεις για περισσότερα από 4000 αεροδρόμια (δελτία METAR και TAF).

Οι διαθέσιμοι σταθμοί απεικονίζονται στο χάρτη με κίτρινες και κόκκινες κουκκίδες.

Μετακινήστε το ποντίκι πάνω από τις κουκκίδες για να δείτε το όνομα του σταθμού.

Στη συνέχεια, κάντε κλικ για να δείτε τις μετεωρολογικές αναφορές και τις προγνώσεις καιρού.

Για να αλλάξετε το χάρτη: κάντε κλικ στα πράσινα κουμπιά με τον μαύρο σταυρό για να ζουμάρετε, στο πράσινο κουμπί με την παύλα για να αφαιρέσετε το ζουμ ή στα πράσινα βέλη για να αντιπαραβάλλετε χάρτες.


METAR-TAF: